sensor_id;sensor_type;location;lat;lon;timestamp;P1;durP1;ratioP1;P2;durP2;ratioP2
20734;SDS011;10528;52.124;5.196;2023-02-08T00:00:59;29.85;;;17.83;;
20734;SDS011;10528;52.124;5.196;2023-02-08T00:03:31;28.83;;;16.50;;
20734;SDS011;10528;52.124;5.196;2023-02-08T00:05:58;27.33;;;16.67;;
20734;SDS011;10528;52.124;5.196;2023-02-08T00:08:25;31.00;;;16.27;;
20734;SDS011;10528;52.124;5.196;2023-02-08T00:10:51;26.00;;;17.05;;
20734;SDS011;10528;52.124;5.196;2023-02-08T00:13:19;26.17;;;16.15;;
20734;SDS011;10528;52.124;5.196;2023-02-08T00:15:46;23.50;;;14.93;;
20734;SDS011;10528;52.124;5.196;2023-02-08T00:18:13;24.30;;;15.25;;
20734;SDS011;10528;52.124;5.196;2023-02-08T00:20:42;25.30;;;16.45;;
20734;SDS011;10528;52.124;5.196;2023-02-08T00:23:09;28.95;;;17.75;;
20734;SDS011;10528;52.124;5.196;2023-02-08T00:25:38;29.45;;;17.13;;
20734;SDS011;10528;52.124;5.196;2023-02-08T00:28:07;29.20;;;16.38;;
20734;SDS011;10528;52.124;5.196;2023-02-08T00:30:40;33.53;;;18.65;;
20734;SDS011;10528;52.124;5.196;2023-02-08T00:33:09;31.77;;;18.30;;
20734;SDS011;10528;52.124;5.196;2023-02-08T00:35:36;31.40;;;18.42;;
20734;SDS011;10528;52.124;5.196;2023-02-08T00:38:03;30.25;;;16.88;;
20734;SDS011;10528;52.124;5.196;2023-02-08T00:40:30;27.60;;;16.63;;
20734;SDS011;10528;52.124;5.196;2023-02-08T00:42:57;24.15;;;16.35;;
20734;SDS011;10528;52.124;5.196;2023-02-08T00:45:24;25.70;;;15.73;;
20734;SDS011;10528;52.124;5.196;2023-02-08T00:47:51;27.70;;;15.77;;
20734;SDS011;10528;52.124;5.196;2023-02-08T00:50:19;24.13;;;15.20;;
20734;SDS011;10528;52.124;5.196;2023-02-08T00:52:46;24.98;;;15.90;;
20734;SDS011;10528;52.124;5.196;2023-02-08T00:55:13;27.17;;;16.35;;
20734;SDS011;10528;52.124;5.196;2023-02-08T00:57:39;23.48;;;15.27;;
20734;SDS011;10528;52.124;5.196;2023-02-08T01:00:09;25.33;;;16.48;;
20734;SDS011;10528;52.124;5.196;2023-02-08T01:02:37;25.05;;;16.25;;
20734;SDS011;10528;52.124;5.196;2023-02-08T01:05:04;27.45;;;15.30;;
20734;SDS011;10528;52.124;5.196;2023-02-08T01:07:32;26.05;;;15.40;;
20734;SDS011;10528;52.124;5.196;2023-02-08T01:10:03;22.40;;;14.98;;
20734;SDS011;10528;52.124;5.196;2023-02-08T01:12:31;23.10;;;14.88;;
20734;SDS011;10528;52.124;5.196;2023-02-08T01:14:58;24.00;;;15.23;;
20734;SDS011;10528;52.124;5.196;2023-02-08T01:17:25;24.42;;;15.13;;
20734;SDS011;10528;52.124;5.196;2023-02-08T01:19:52;22.00;;;15.32;;
20734;SDS011;10528;52.124;5.196;2023-02-08T01:22:19;23.58;;;16.40;;
20734;SDS011;10528;52.124;5.196;2023-02-08T01:24:46;26.02;;;15.80;;
20734;SDS011;10528;52.124;5.196;2023-02-08T01:27:13;23.17;;;15.68;;
20734;SDS011;10528;52.124;5.196;2023-02-08T01:29:39;24.33;;;15.23;;
20734;SDS011;10528;52.124;5.196;2023-02-08T01:32:06;26.42;;;15.55;;
20734;SDS011;10528;52.124;5.196;2023-02-08T01:34:33;21.65;;;15.20;;
20734;SDS011;10528;52.124;5.196;2023-02-08T01:37:00;24.30;;;15.50;;
20734;SDS011;10528;52.124;5.196;2023-02-08T01:39:27;23.23;;;14.82;;
20734;SDS011;10528;52.124;5.196;2023-02-08T01:41:53;22.48;;;14.38;;
20734;SDS011;10528;52.124;5.196;2023-02-08T01:47:41;24.35;;;15.15;;
20734;SDS011;10528;52.124;5.196;2023-02-08T01:50:12;24.33;;;15.45;;
20734;SDS011;10528;52.124;5.196;2023-02-08T01:52:42;23.52;;;15.10;;
20734;SDS011;10528;52.124;5.196;2023-02-08T01:55:12;25.13;;;15.38;;
20734;SDS011;10528;52.124;5.196;2023-02-08T01:57:49;21.88;;;14.88;;
20734;SDS011;10528;52.124;5.196;2023-02-08T02:00:22;21.65;;;14.63;;
20734;SDS011;10528;52.124;5.196;2023-02-08T02:02:50;21.92;;;15.13;;
20734;SDS011;10528;52.124;5.196;2023-02-08T02:05:22;22.45;;;14.32;;
20734;SDS011;10528;52.124;5.196;2023-02-08T02:08:08;24.08;;;15.57;;
20734;SDS011;10528;52.124;5.196;2023-02-08T02:10:37;24.48;;;15.60;;
20734;SDS011;10528;52.124;5.196;2023-02-08T02:13:12;19.38;;;14.10;;
20734;SDS011;10528;52.124;5.196;2023-02-08T02:15:44;19.83;;;14.70;;
20734;SDS011;10528;52.124;5.196;2023-02-08T02:18:11;24.88;;;15.40;;
20734;SDS011;10528;52.124;5.196;2023-02-08T02:41:25;21.10;;;15.27;;
20734;SDS011;10528;52.124;5.196;2023-02-08T02:44:34;22.20;;;14.93;;
20734;SDS011;10528;52.124;5.196;2023-02-08T02:47:14;19.48;;;13.70;;
20734;SDS011;10528;52.124;5.196;2023-02-08T02:49:49;22.27;;;14.05;;
20734;SDS011;10528;52.124;5.196;2023-02-08T02:52:41;19.73;;;13.43;;
20734;SDS011;10528;52.124;5.196;2023-02-08T02:55:17;19.77;;;14.23;;
20734;SDS011;10528;52.124;5.196;2023-02-08T02:57:48;21.27;;;14.27;;
20734;SDS011;10528;52.124;5.196;2023-02-08T03:00:23;21.10;;;14.88;;
20734;SDS011;10528;52.124;5.196;2023-02-08T03:02:54;22.70;;;14.50;;
20734;SDS011;10528;52.124;5.196;2023-02-08T03:05:21;21.50;;;14.20;;
20734;SDS011;10528;52.124;5.196;2023-02-08T03:17:10;19.13;;;13.20;;
20734;SDS011;10528;52.124;5.196;2023-02-08T03:28:27;19.25;;;12.98;;
20734;SDS011;10528;52.124;5.196;2023-02-08T03:33:57;20.85;;;14.20;;
20734;SDS011;10528;52.124;5.196;2023-02-08T03:39:20;21.65;;;13.25;;
20734;SDS011;10528;52.124;5.196;2023-02-08T03:41:53;20.00;;;13.55;;
20734;SDS011;10528;52.124;5.196;2023-02-08T03:44:33;19.52;;;13.07;;
20734;SDS011;10528;52.124;5.196;2023-02-08T03:47:18;20.95;;;13.88;;
20734;SDS011;10528;52.124;5.196;2023-02-08T03:49:58;20.15;;;12.43;;
20734;SDS011;10528;52.124;5.196;2023-02-08T03:52:31;21.33;;;13.90;;
20734;SDS011;10528;52.124;5.196;2023-02-08T03:55:03;20.25;;;13.57;;
20734;SDS011;10528;52.124;5.196;2023-02-08T03:57:39;21.45;;;14.50;;
20734;SDS011;10528;52.124;5.196;2023-02-08T04:00:18;22.48;;;14.50;;
20734;SDS011;10528;52.124;5.196;2023-02-08T04:05:35;22.83;;;13.60;;
20734;SDS011;10528;52.124;5.196;2023-02-08T04:08:03;20.70;;;13.40;;
20734;SDS011;10528;52.124;5.196;2023-02-08T04:10:30;19.08;;;13.40;;
20734;SDS011;10528;52.124;5.196;2023-02-08T04:12:57;18.52;;;12.77;;
20734;SDS011;10528;52.124;5.196;2023-02-08T04:15:24;19.67;;;13.00;;
20734;SDS011;10528;52.124;5.196;2023-02-08T04:17:52;18.88;;;12.55;;
20734;SDS011;10528;52.124;5.196;2023-02-08T04:20:19;19.25;;;13.63;;
20734;SDS011;10528;52.124;5.196;2023-02-08T04:22:46;21.30;;;13.45;;
20734;SDS011;10528;52.124;5.196;2023-02-08T04:25:14;22.05;;;13.50;;
20734;SDS011;10528;52.124;5.196;2023-02-08T04:27:41;21.40;;;13.88;;
20734;SDS011;10528;52.124;5.196;2023-02-08T04:30:08;18.48;;;12.57;;
20734;SDS011;10528;52.124;5.196;2023-02-08T04:32:36;18.80;;;13.07;;
20734;SDS011;10528;52.124;5.196;2023-02-08T04:35:02;20.23;;;13.10;;
20734;SDS011;10528;52.124;5.196;2023-02-08T04:37:30;19.83;;;13.52;;
20734;SDS011;10528;52.124;5.196;2023-02-08T04:39:57;19.98;;;13.38;;
20734;SDS011;10528;52.124;5.196;2023-02-08T04:42:24;19.20;;;13.63;;
20734;SDS011;10528;52.124;5.196;2023-02-08T04:44:51;17.83;;;12.40;;
20734;SDS011;10528;52.124;5.196;2023-02-08T04:47:18;19.42;;;12.93;;
20734;SDS011;10528;52.124;5.196;2023-02-08T04:49:45;19.23;;;13.43;;
20734;SDS011;10528;52.124;5.196;2023-02-08T04:52:11;20.48;;;13.35;;
20734;SDS011;10528;52.124;5.196;2023-02-08T04:54:38;20.05;;;12.52;;
20734;SDS011;10528;52.124;5.196;2023-02-08T04:57:06;18.02;;;12.88;;
20734;SDS011;10528;52.124;5.196;2023-02-08T04:59:37;20.27;;;13.25;;
20734;SDS011;10528;52.124;5.196;2023-02-08T05:02:04;18.55;;;12.30;;
20734;SDS011;10528;52.124;5.196;2023-02-08T05:04:31;18.73;;;13.18;;
20734;SDS011;10528;52.124;5.196;2023-02-08T05:06:58;20.50;;;12.77;;
20734;SDS011;10528;52.124;5.196;2023-02-08T05:09:25;17.70;;;12.23;;
20734;SDS011;10528;52.124;5.196;2023-02-08T05:11:51;19.27;;;12.73;;
20734;SDS011;10528;52.124;5.196;2023-02-08T05:14:18;18.33;;;11.95;;
20734;SDS011;10528;52.124;5.196;2023-02-08T05:16:45;20.95;;;12.75;;
20734;SDS011;10528;52.124;5.196;2023-02-08T05:19:12;19.05;;;12.82;;
20734;SDS011;10528;52.124;5.196;2023-02-08T05:21:39;17.83;;;12.27;;
20734;SDS011;10528;52.124;5.196;2023-02-08T05:24:06;18.60;;;12.50;;
20734;SDS011;10528;52.124;5.196;2023-02-08T05:26:34;19.77;;;13.32;;
20734;SDS011;10528;52.124;5.196;2023-02-08T05:29:00;19.02;;;13.35;;
20734;SDS011;10528;52.124;5.196;2023-02-08T05:31:27;19.75;;;13.15;;
20734;SDS011;10528;52.124;5.196;2023-02-08T05:33:54;19.10;;;12.45;;
20734;SDS011;10528;52.124;5.196;2023-02-08T05:36:21;18.13;;;12.93;;
20734;SDS011;10528;52.124;5.196;2023-02-08T05:38:49;18.65;;;12.98;;
20734;SDS011;10528;52.124;5.196;2023-02-08T05:41:16;18.92;;;13.38;;
20734;SDS011;10528;52.124;5.196;2023-02-08T05:43:43;20.38;;;13.27;;
20734;SDS011;10528;52.124;5.196;2023-02-08T05:46:11;21.92;;;13.63;;
20734;SDS011;10528;52.124;5.196;2023-02-08T05:48:38;19.38;;;13.57;;
20734;SDS011;10528;52.124;5.196;2023-02-08T05:51:05;18.23;;;12.38;;
20734;SDS011;10528;52.124;5.196;2023-02-08T05:53:32;18.98;;;12.90;;
20734;SDS011;10528;52.124;5.196;2023-02-08T05:55:59;16.80;;;11.77;;
20734;SDS011;10528;52.124;5.196;2023-02-08T05:58:26;20.20;;;13.30;;
20734;SDS011;10528;52.124;5.196;2023-02-08T06:00:53;17.65;;;12.90;;
20734;SDS011;10528;52.124;5.196;2023-02-08T06:03:20;19.73;;;12.80;;
20734;SDS011;10528;52.124;5.196;2023-02-08T06:05:47;20.02;;;13.60;;
20734;SDS011;10528;52.124;5.196;2023-02-08T06:08:14;19.80;;;13.35;;
20734;SDS011;10528;52.124;5.196;2023-02-08T06:10:41;18.90;;;13.07;;
20734;SDS011;10528;52.124;5.196;2023-02-08T06:13:08;19.48;;;13.18;;
20734;SDS011;10528;52.124;5.196;2023-02-08T06:15:35;18.67;;;12.80;;
20734;SDS011;10528;52.124;5.196;2023-02-08T06:18:02;20.80;;;13.18;;
20734;SDS011;10528;52.124;5.196;2023-02-08T06:20:29;19.83;;;13.60;;
20734;SDS011;10528;52.124;5.196;2023-02-08T06:22:55;20.77;;;13.65;;
20734;SDS011;10528;52.124;5.196;2023-02-08T06:25:22;19.30;;;12.95;;
20734;SDS011;10528;52.124;5.196;2023-02-08T06:27:49;20.02;;;13.35;;
20734;SDS011;10528;52.124;5.196;2023-02-08T06:30:16;18.35;;;13.48;;
20734;SDS011;10528;52.124;5.196;2023-02-08T06:32:43;21.15;;;13.20;;
20734;SDS011;10528;52.124;5.196;2023-02-08T06:35:10;20.80;;;13.23;;
20734;SDS011;10528;52.124;5.196;2023-02-08T06:37:38;20.15;;;13.77;;
20734;SDS011;10528;52.124;5.196;2023-02-08T06:40:05;20.15;;;13.63;;
20734;SDS011;10528;52.124;5.196;2023-02-08T06:42:33;21.58;;;12.90;;
20734;SDS011;10528;52.124;5.196;2023-02-08T06:45:00;20.25;;;13.52;;
20734;SDS011;10528;52.124;5.196;2023-02-08T06:47:27;18.17;;;12.30;;
20734;SDS011;10528;52.124;5.196;2023-02-08T06:49:54;19.73;;;14.07;;
20734;SDS011;10528;52.124;5.196;2023-02-08T06:52:21;20.83;;;13.70;;
20734;SDS011;10528;52.124;5.196;2023-02-08T06:54:48;21.17;;;13.55;;
20734;SDS011;10528;52.124;5.196;2023-02-08T06:57:15;16.83;;;11.93;;
20734;SDS011;10528;52.124;5.196;2023-02-08T06:59:42;21.05;;;13.45;;
20734;SDS011;10528;52.124;5.196;2023-02-08T07:02:10;18.65;;;13.27;;
20734;SDS011;10528;52.124;5.196;2023-02-08T07:04:40;17.65;;;12.20;;
20734;SDS011;10528;52.124;5.196;2023-02-08T07:07:09;21.20;;;13.10;;
20734;SDS011;10528;52.124;5.196;2023-02-08T07:09:37;20.10;;;13.13;;
20734;SDS011;10528;52.124;5.196;2023-02-08T07:12:05;21.83;;;13.88;;
20734;SDS011;10528;52.124;5.196;2023-02-08T07:14:34;21.88;;;13.32;;
20734;SDS011;10528;52.124;5.196;2023-02-08T07:17:05;20.23;;;12.65;;
20734;SDS011;10528;52.124;5.196;2023-02-08T07:19:32;19.92;;;12.35;;
20734;SDS011;10528;52.124;5.196;2023-02-08T07:21:59;20.58;;;13.63;;
20734;SDS011;10528;52.124;5.196;2023-02-08T07:24:33;18.95;;;13.23;;
20734;SDS011;10528;52.124;5.196;2023-02-08T07:27:03;23.23;;;13.50;;
20734;SDS011;10528;52.124;5.196;2023-02-08T07:29:31;19.75;;;13.02;;
20734;SDS011;10528;52.124;5.196;2023-02-08T07:32:00;20.75;;;13.48;;
20734;SDS011;10528;52.124;5.196;2023-02-08T07:34:29;19.23;;;13.07;;
20734;SDS011;10528;52.124;5.196;2023-02-08T07:37:01;22.52;;;13.27;;
20734;SDS011;10528;52.124;5.196;2023-02-08T07:39:28;20.08;;;12.90;;
20734;SDS011;10528;52.124;5.196;2023-02-08T07:41:56;19.80;;;12.93;;
20734;SDS011;10528;52.124;5.196;2023-02-08T07:44:28;21.25;;;13.63;;
20734;SDS011;10528;52.124;5.196;2023-02-08T07:46:55;20.02;;;12.85;;
20734;SDS011;10528;52.124;5.196;2023-02-08T07:49:22;20.13;;;13.73;;
20734;SDS011;10528;52.124;5.196;2023-02-08T07:51:49;21.80;;;13.45;;
20734;SDS011;10528;52.124;5.196;2023-02-08T07:54:16;21.55;;;13.23;;
20734;SDS011;10528;52.124;5.196;2023-02-08T07:56:43;21.63;;;13.20;;
20734;SDS011;10528;52.124;5.196;2023-02-08T07:59:10;20.75;;;13.63;;
20734;SDS011;10528;52.124;5.196;2023-02-08T08:01:37;21.63;;;13.32;;
20734;SDS011;10528;52.124;5.196;2023-02-08T08:04:04;18.23;;;12.63;;
20734;SDS011;10528;52.124;5.196;2023-02-08T08:06:31;20.58;;;14.15;;
20734;SDS011;10528;52.124;5.196;2023-02-08T08:08:58;18.83;;;13.38;;
20734;SDS011;10528;52.124;5.196;2023-02-08T08:11:24;20.48;;;13.43;;
20734;SDS011;10528;52.124;5.196;2023-02-08T08:13:51;21.88;;;13.40;;
20734;SDS011;10528;52.124;5.196;2023-02-08T08:16:18;19.13;;;12.75;;
20734;SDS011;10528;52.124;5.196;2023-02-08T08:18:46;20.92;;;14.25;;
20734;SDS011;10528;52.124;5.196;2023-02-08T08:21:13;18.52;;;13.38;;
20734;SDS011;10528;52.124;5.196;2023-02-08T08:23:41;21.80;;;14.13;;
20734;SDS011;10528;52.124;5.196;2023-02-08T08:26:10;20.60;;;13.70;;
20734;SDS011;10528;52.124;5.196;2023-02-08T08:28:43;20.13;;;13.13;;
20734;SDS011;10528;52.124;5.196;2023-02-08T08:31:13;24.83;;;14.13;;
20734;SDS011;10528;52.124;5.196;2023-02-08T08:33:43;21.05;;;14.00;;
20734;SDS011;10528;52.124;5.196;2023-02-08T08:36:11;18.52;;;13.25;;
20734;SDS011;10528;52.124;5.196;2023-02-08T08:38:38;23.25;;;14.15;;
20734;SDS011;10528;52.124;5.196;2023-02-08T08:41:07;20.50;;;13.57;;
20734;SDS011;10528;52.124;5.196;2023-02-08T08:43:40;20.52;;;13.70;;
20734;SDS011;10528;52.124;5.196;2023-02-08T08:46:07;21.45;;;12.95;;
20734;SDS011;10528;52.124;5.196;2023-02-08T08:48:35;20.58;;;13.93;;
20734;SDS011;10528;52.124;5.196;2023-02-08T08:51:04;20.10;;;13.77;;
20734;SDS011;10528;52.124;5.196;2023-02-08T08:53:32;21.95;;;14.25;;
20734;SDS011;10528;52.124;5.196;2023-02-08T08:55:59;19.25;;;13.50;;
20734;SDS011;10528;52.124;5.196;2023-02-08T08:58:26;18.48;;;13.25;;
20734;SDS011;10528;52.124;5.196;2023-02-08T09:00:56;19.08;;;12.93;;
20734;SDS011;10528;52.124;5.196;2023-02-08T09:03:25;22.77;;;13.48;;
20734;SDS011;10528;52.124;5.196;2023-02-08T09:05:53;20.23;;;12.80;;
20734;SDS011;10528;52.124;5.196;2023-02-08T09:08:20;18.73;;;12.63;;
20734;SDS011;10528;52.124;5.196;2023-02-08T09:10:47;19.30;;;13.23;;
20734;SDS011;10528;52.124;5.196;2023-02-08T09:13:14;21.08;;;13.77;;
20734;SDS011;10528;52.124;5.196;2023-02-08T09:15:44;19.10;;;13.02;;
20734;SDS011;10528;52.124;5.196;2023-02-08T09:18:13;16.50;;;11.68;;
20734;SDS011;10528;52.124;5.196;2023-02-08T09:20:40;18.25;;;12.35;;
20734;SDS011;10528;52.124;5.196;2023-02-08T09:23:08;21.80;;;12.85;;
20734;SDS011;10528;52.124;5.196;2023-02-08T09:25:35;20.23;;;12.52;;
20734;SDS011;10528;52.124;5.196;2023-02-08T09:28:03;20.98;;;12.10;;
20734;SDS011;10528;52.124;5.196;2023-02-08T09:30:30;20.10;;;12.00;;
20734;SDS011;10528;52.124;5.196;2023-02-08T09:32:58;18.15;;;12.02;;
20734;SDS011;10528;52.124;5.196;2023-02-08T09:35:25;21.83;;;12.30;;
20734;SDS011;10528;52.124;5.196;2023-02-08T09:37:52;19.73;;;12.43;;
20734;SDS011;10528;52.124;5.196;2023-02-08T09:40:23;18.65;;;12.48;;
20734;SDS011;10528;52.124;5.196;2023-02-08T09:46:00;19.95;;;12.55;;
20734;SDS011;10528;52.124;5.196;2023-02-08T09:48:37;16.60;;;11.98;;
20734;SDS011;10528;52.124;5.196;2023-02-08T09:54:07;19.10;;;12.13;;
20734;SDS011;10528;52.124;5.196;2023-02-08T09:56:47;17.63;;;11.57;;
20734;SDS011;10528;52.124;5.196;2023-02-08T09:59:17;18.40;;;11.05;;
20734;SDS011;10528;52.124;5.196;2023-02-08T10:01:53;15.85;;;10.82;;
20734;SDS011;10528;52.124;5.196;2023-02-08T10:04:36;16.85;;;11.38;;
20734;SDS011;10528;52.124;5.196;2023-02-08T10:07:25;15.25;;;11.02;;
20734;SDS011;10528;52.124;5.196;2023-02-08T10:09:54;16.15;;;11.88;;
20734;SDS011;10528;52.124;5.196;2023-02-08T10:21:09;16.77;;;11.68;;
20734;SDS011;10528;52.124;5.196;2023-02-08T10:27:01;15.32;;;10.25;;
20734;SDS011;10528;52.124;5.196;2023-02-08T10:30:03;14.68;;;10.50;;
20734;SDS011;10528;52.124;5.196;2023-02-08T10:35:36;15.18;;;10.55;;
20734;SDS011;10528;52.124;5.196;2023-02-08T10:38:20;17.42;;;11.20;;
20734;SDS011;10528;52.124;5.196;2023-02-08T10:41:09;16.83;;;11.00;;
20734;SDS011;10528;52.124;5.196;2023-02-08T10:43:47;16.20;;;10.50;;
20734;SDS011;10528;52.124;5.196;2023-02-08T10:49:53;18.35;;;11.65;;
20734;SDS011;10528;52.124;5.196;2023-02-08T10:52:33;13.18;;;9.40;;
20734;SDS011;10528;52.124;5.196;2023-02-08T10:54:59;14.20;;;9.23;;
20734;SDS011;10528;52.124;5.196;2023-02-08T10:57:29;16.00;;;9.98;;
20734;SDS011;10528;52.124;5.196;2023-02-08T11:00:01;14.35;;;9.27;;
20734;SDS011;10528;52.124;5.196;2023-02-08T11:02:34;13.77;;;9.50;;
20734;SDS011;10528;52.124;5.196;2023-02-08T11:05:09;12.40;;;8.32;;
20734;SDS011;10528;52.124;5.196;2023-02-08T11:10:42;11.13;;;8.07;;
20734;SDS011;10528;52.124;5.196;2023-02-08T11:13:21;14.13;;;8.93;;
20734;SDS011;10528;52.124;5.196;2023-02-08T11:15:57;11.88;;;8.25;;
20734;SDS011;10528;52.124;5.196;2023-02-08T11:18:30;11.30;;;7.93;;
20734;SDS011;10528;52.124;5.196;2023-02-08T11:21:22;14.30;;;9.05;;
20734;SDS011;10528;52.124;5.196;2023-02-08T11:23:50;14.38;;;8.70;;
20734;SDS011;10528;52.124;5.196;2023-02-08T11:26:22;14.60;;;8.15;;
20734;SDS011;10528;52.124;5.196;2023-02-08T11:32:02;12.43;;;8.18;;
20734;SDS011;10528;52.124;5.196;2023-02-08T11:34:42;12.68;;;8.15;;
20734;SDS011;10528;52.124;5.196;2023-02-08T11:39:49;15.52;;;9.32;;
20734;SDS011;10528;52.124;5.196;2023-02-08T11:42:21;14.82;;;8.75;;
20734;SDS011;10528;52.124;5.196;2023-02-08T11:45:07;13.52;;;9.10;;
20734;SDS011;10528;52.124;5.196;2023-02-08T11:47:46;12.98;;;7.93;;
20734;SDS011;10528;52.124;5.196;2023-02-08T11:50:29;11.38;;;8.30;;
20734;SDS011;10528;52.124;5.196;2023-02-08T11:53:01;11.57;;;7.65;;
20734;SDS011;10528;52.124;5.196;2023-02-08T11:58:56;11.40;;;7.93;;
20734;SDS011;10528;52.124;5.196;2023-02-08T12:01:40;11.82;;;7.47;;
20734;SDS011;10528;52.124;5.196;2023-02-08T12:04:11;11.88;;;8.07;;
20734;SDS011;10528;52.124;5.196;2023-02-08T12:06:59;12.80;;;7.80;;
20734;SDS011;10528;52.124;5.196;2023-02-08T12:12:56;11.88;;;8.75;;
20734;SDS011;10528;52.124;5.196;2023-02-08T12:16:09;13.35;;;8.25;;
20734;SDS011;10528;52.124;5.196;2023-02-08T12:21:55;12.65;;;8.88;;
20734;SDS011;10528;52.124;5.196;2023-02-08T12:33:14;13.23;;;9.00;;
20734;SDS011;10528;52.124;5.196;2023-02-08T12:36:17;12.55;;;8.65;;
20734;SDS011;10528;52.124;5.196;2023-02-08T12:39:05;11.70;;;8.38;;
20734;SDS011;10528;52.124;5.196;2023-02-08T12:42:25;16.60;;;9.27;;
20734;SDS011;10528;52.124;5.196;2023-02-08T12:51:28;11.85;;;8.23;;
20734;SDS011;10528;52.124;5.196;2023-02-08T12:54:25;11.60;;;8.27;;
20734;SDS011;10528;52.124;5.196;2023-02-08T12:57:03;13.38;;;8.02;;
20734;SDS011;10528;52.124;5.196;2023-02-08T12:59:41;12.00;;;8.18;;
20734;SDS011;10528;52.124;5.196;2023-02-08T13:02:19;15.05;;;8.20;;
20734;SDS011;10528;52.124;5.196;2023-02-08T13:05:15;11.85;;;7.82;;
20734;SDS011;10528;52.124;5.196;2023-02-08T13:07:48;13.15;;;7.78;;
20734;SDS011;10528;52.124;5.196;2023-02-08T13:10:48;12.45;;;8.10;;
20734;SDS011;10528;52.124;5.196;2023-02-08T13:13:39;11.68;;;8.20;;
20734;SDS011;10528;52.124;5.196;2023-02-08T13:16:12;11.40;;;7.30;;
20734;SDS011;10528;52.124;5.196;2023-02-08T13:21:50;9.73;;;6.80;;
20734;SDS011;10528;52.124;5.196;2023-02-08T13:24:38;9.27;;;7.10;;
20734;SDS011;10528;52.124;5.196;2023-02-08T13:27:19;9.75;;;6.82;;
20734;SDS011;10528;52.124;5.196;2023-02-08T13:29:48;11.82;;;6.45;;
20734;SDS011;10528;52.124;5.196;2023-02-08T13:32:20;11.40;;;6.90;;
20734;SDS011;10528;52.124;5.196;2023-02-08T13:34:56;9.40;;;6.53;;
20734;SDS011;10528;52.124;5.196;2023-02-08T13:37:31;12.00;;;6.68;;
20734;SDS011;10528;52.124;5.196;2023-02-08T13:40:20;11.63;;;6.93;;
20734;SDS011;10528;52.124;5.196;2023-02-08T13:43:04;9.23;;;6.50;;
20734;SDS011;10528;52.124;5.196;2023-02-08T13:46:01;10.07;;;7.15;;
20734;SDS011;10528;52.124;5.196;2023-02-08T13:56:42;13.38;;;7.00;;
20734;SDS011;10528;52.124;5.196;2023-02-08T13:59:32;10.48;;;6.78;;
20734;SDS011;10528;52.124;5.196;2023-02-08T14:04:46;11.07;;;7.35;;
20734;SDS011;10528;52.124;5.196;2023-02-08T14:10:20;11.25;;;7.65;;
20734;SDS011;10528;52.124;5.196;2023-02-08T14:13:04;9.80;;;7.25;;
20734;SDS011;10528;52.124;5.196;2023-02-08T14:18:59;10.27;;;7.50;;
20734;SDS011;10528;52.124;5.196;2023-02-08T14:22:33;11.27;;;7.38;;
20734;SDS011;10528;52.124;5.196;2023-02-08T14:24:47;10.30;;;7.05;;
20734;SDS011;10528;52.124;5.196;2023-02-08T14:30:20;10.63;;;7.15;;
20734;SDS011;10528;52.124;5.196;2023-02-08T14:35:34;12.25;;;7.57;;
20734;SDS011;10528;52.124;5.196;2023-02-08T14:38:52;12.77;;;7.15;;
20734;SDS011;10528;52.124;5.196;2023-02-08T14:41:39;10.25;;;7.07;;
20734;SDS011;10528;52.124;5.196;2023-02-08T14:47:08;9.43;;;7.18;;
20734;SDS011;10528;52.124;5.196;2023-02-08T14:52:50;11.45;;;7.38;;
20734;SDS011;10528;52.124;5.196;2023-02-08T14:55:36;12.13;;;7.35;;
20734;SDS011;10528;52.124;5.196;2023-02-08T14:58:23;11.15;;;7.75;;
20734;SDS011;10528;52.124;5.196;2023-02-08T15:01:02;11.73;;;7.40;;
20734;SDS011;10528;52.124;5.196;2023-02-08T15:03:39;11.02;;;7.30;;
20734;SDS011;10528;52.124;5.196;2023-02-08T15:09:03;10.48;;;7.28;;
20734;SDS011;10528;52.124;5.196;2023-02-08T15:11:38;10.10;;;7.68;;
20734;SDS011;10528;52.124;5.196;2023-02-08T15:14:05;12.75;;;8.00;;
20734;SDS011;10528;52.124;5.196;2023-02-08T15:16:42;10.93;;;8.18;;
20734;SDS011;10528;52.124;5.196;2023-02-08T15:24:51;9.68;;;7.13;;
20734;SDS011;10528;52.124;5.196;2023-02-08T15:27:27;11.70;;;7.28;;
20734;SDS011;10528;52.124;5.196;2023-02-08T15:29:59;11.80;;;7.05;;
20734;SDS011;10528;52.124;5.196;2023-02-08T15:32:27;12.07;;;7.80;;
20734;SDS011;10528;52.124;5.196;2023-02-08T15:34:59;10.38;;;6.93;;
20734;SDS011;10528;52.124;5.196;2023-02-08T15:37:29;11.35;;;7.50;;
20734;SDS011;10528;52.124;5.196;2023-02-08T15:40:00;10.57;;;7.55;;
20734;SDS011;10528;52.124;5.196;2023-02-08T15:42:31;13.02;;;7.57;;
20734;SDS011;10528;52.124;5.196;2023-02-08T15:44:59;11.32;;;7.57;;
20734;SDS011;10528;52.124;5.196;2023-02-08T15:47:31;9.45;;;6.97;;
20734;SDS011;10528;52.124;5.196;2023-02-08T15:50:04;10.25;;;6.55;;
20734;SDS011;10528;52.124;5.196;2023-02-08T15:52:41;10.88;;;6.50;;
20734;SDS011;10528;52.124;5.196;2023-02-08T15:55:15;9.95;;;6.65;;
20734;SDS011;10528;52.124;5.196;2023-02-08T15:57:43;10.32;;;6.60;;
20734;SDS011;10528;52.124;5.196;2023-02-08T16:00:27;10.82;;;7.25;;
20734;SDS011;10528;52.124;5.196;2023-02-08T16:03:05;9.93;;;5.82;;
20734;SDS011;10528;52.124;5.196;2023-02-08T16:05:48;8.35;;;5.45;;
20734;SDS011;10528;52.124;5.196;2023-02-08T16:08:20;9.30;;;5.13;;
20734;SDS011;10528;52.124;5.196;2023-02-08T16:11:12;7.63;;;4.93;;
20734;SDS011;10528;52.124;5.196;2023-02-08T16:13:48;6.85;;;4.70;;
20734;SDS011;10528;52.124;5.196;2023-02-08T16:21:47;12.52;;;6.00;;
20734;SDS011;10528;52.124;5.196;2023-02-08T16:26:43;9.20;;;5.32;;
20734;SDS011;10528;52.124;5.196;2023-02-08T16:29:36;8.82;;;4.90;;
20734;SDS011;10528;52.124;5.196;2023-02-08T16:34:38;8.23;;;4.65;;
20734;SDS011;10528;52.124;5.196;2023-02-08T16:37:06;6.70;;;4.45;;
20734;SDS011;10528;52.124;5.196;2023-02-08T16:42:21;7.80;;;4.75;;
20734;SDS011;10528;52.124;5.196;2023-02-08T16:47:35;7.40;;;4.43;;
20734;SDS011;10528;52.124;5.196;2023-02-08T16:50:14;10.10;;;5.15;;
20734;SDS011;10528;52.124;5.196;2023-02-08T16:52:54;6.75;;;4.47;;
20734;SDS011;10528;52.124;5.196;2023-02-08T16:55:29;7.93;;;4.88;;
20734;SDS011;10528;52.124;5.196;2023-02-08T16:57:58;7.68;;;4.85;;
20734;SDS011;10528;52.124;5.196;2023-02-08T17:00:30;9.15;;;5.78;;
20734;SDS011;10528;52.124;5.196;2023-02-08T17:03:00;8.65;;;5.50;;
20734;SDS011;10528;52.124;5.196;2023-02-08T17:05:27;8.77;;;5.63;;
20734;SDS011;10528;52.124;5.196;2023-02-08T17:08:00;8.98;;;5.45;;
20734;SDS011;10528;52.124;5.196;2023-02-08T17:10:33;9.15;;;5.80;;
20734;SDS011;10528;52.124;5.196;2023-02-08T17:13:02;9.43;;;5.60;;
20734;SDS011;10528;52.124;5.196;2023-02-08T17:15:46;8.75;;;5.30;;
20734;SDS011;10528;52.124;5.196;2023-02-08T17:18:16;9.88;;;5.60;;
20734;SDS011;10528;52.124;5.196;2023-02-08T17:20:43;10.80;;;6.45;;
20734;SDS011;10528;52.124;5.196;2023-02-08T17:23:10;11.27;;;6.07;;
20734;SDS011;10528;52.124;5.196;2023-02-08T17:25:40;10.57;;;7.07;;
20734;SDS011;10528;52.124;5.196;2023-02-08T17:28:18;13.93;;;7.55;;
20734;SDS011;10528;52.124;5.196;2023-02-08T17:30:46;12.90;;;7.90;;
20734;SDS011;10528;52.124;5.196;2023-02-08T17:33:14;16.15;;;9.15;;
20734;SDS011;10528;52.124;5.196;2023-02-08T17:35:45;14.27;;;9.20;;
20734;SDS011;10528;52.124;5.196;2023-02-08T17:38:16;14.43;;;9.60;;
20734;SDS011;10528;52.124;5.196;2023-02-08T17:40:45;10.90;;;7.40;;
20734;SDS011;10528;52.124;5.196;2023-02-08T17:43:12;11.90;;;7.65;;